Time;durP1;ratioP1;P1;durP2;ratioP2;P2;SDS_P1;SDS_P2;PMS_P1;PMS_P2;Temp;Humidity;BMP_temperature;BMP_pressure;BME280_temperature;BME280_humidity;BME280_pressure;Samples;Min_cycle;Max_cycle;Signal;HPM_P1;HPM_P2
2023/04/29 00:00:06;;;;;;;5.83;4.53;;;;;;;;;;5055705;28;20211;-63
2023/04/29 00:02:36;;;;;;;6.13;3.97;;;;;;;;;;5058083;28;20318;-64
2023/04/29 00:05:04;;;;;;;5.53;4.30;;;;;;;;;;5058762;28;20268;-63
2023/04/29 00:07:32;;;;;;;5.50;4.03;;;;;;;;;;5058698;28;20253;-63
2023/04/29 00:10:00;;;;;;;4.70;4.30;;;;;;;;;;5058568;28;20234;-64
2023/04/29 00:12:30;;;;;;;7.37;4.37;;;;;;;;;;5048844;28;20236;-63
2023/04/29 00:14:59;;;;;;;5.37;3.70;;;;;;;;;;5038521;28;20212;-63
2023/04/29 00:17:27;;;;;;;4.47;3.70;;;;;;;;;;5037996;28;20693;-63
2023/04/29 00:19:56;;;;;;;5.80;4.00;;;;;;;;;;5038046;28;20655;-63
2023/04/29 00:22:24;;;;;;;6.03;4.10;;;;;;;;;;5038163;28;20714;-64
2023/04/29 00:24:53;;;;;;;4.83;3.33;;;;;;;;;;5038117;28;20295;-63
2023/04/29 00:27:21;;;;;;;4.73;3.47;;;;;;;;;;5053335;28;20230;-63
2023/04/29 00:29:49;;;;;;;3.87;3.27;;;;;;;;;;5040266;28;20309;-63
2023/04/29 00:32:17;;;;;;;5.90;3.90;;;;;;;;;;5037753;28;20199;-64
2023/04/29 00:34:45;;;;;;;4.73;4.10;;;;;;;;;;5038140;28;20290;-63
2023/04/29 00:37:15;;;;;;;4.33;3.90;;;;;;;;;;5037969;28;20207;-63
2023/04/29 00:39:43;;;;;;;5.77;3.67;;;;;;;;;;5037932;28;20545;-63
2023/04/29 00:42:11;;;;;;;6.23;4.30;;;;;;;;;;5038053;28;20224;-63
2023/04/29 00:44:39;;;;;;;5.73;3.47;;;;;;;;;;5041697;28;20286;-64
2023/04/29 00:47:10;;;;;;;6.97;3.10;;;;;;;;;;5037668;28;20318;-63
2023/04/29 00:49:38;;;;;;;4.80;3.63;;;;;;;;;;5037553;28;20220;-63
2023/04/29 00:52:08;;;;;;;5.57;3.57;;;;;;;;;;5037980;28;20299;-63
2023/04/29 00:54:37;;;;;;;7.53;3.70;;;;;;;;;;5038043;28;20239;-63
2023/04/29 00:57:06;;;;;;;7.70;3.17;;;;;;;;;;5037573;28;20266;-63
2023/04/29 00:59:35;;;;;;;4.67;3.23;;;;;;;;;;5051159;28;20234;-64
2023/04/29 01:02:03;;;;;;;3.67;3.13;;;;;;;;;;5056381;28;20251;-64
2023/04/29 01:04:31;;;;;;;4.67;3.30;;;;;;;;;;5057745;28;20213;-63
2023/04/29 01:07:02;;;;;;;5.93;3.90;;;;;;;;;;5057633;28;20238;-63
2023/04/29 01:09:38;;;;;;;7.20;4.03;;;;;;;;;;5057724;28;20274;-64
2023/04/29 01:12:09;;;;;;;6.07;4.23;;;;;;;;;;5057389;28;20230;-64
2023/04/29 01:14:39;;;;;;;4.87;3.77;;;;;;;;;;5057467;28;20294;-63
2023/04/29 01:17:10;;;;;;;5.37;4.60;;;;;;;;;;5058988;28;20272;-63
2023/04/29 01:19:40;;;;;;;7.83;4.13;;;;;;;;;;5041216;28;20659;-63
2023/04/29 01:22:10;;;;;;;6.03;3.80;;;;;;;;;;5037719;28;20314;-63
2023/04/29 01:24:40;;;;;;;4.03;3.23;;;;;;;;;;5037675;28;20219;-63
2023/04/29 01:27:14;;;;;;;4.53;3.47;;;;;;;;;;5051366;28;20310;-63
2023/04/29 01:29:45;;;;;;;5.53;3.87;;;;;;;;;;5057302;28;20550;-63
2023/04/29 01:32:17;;;;;;;4.50;3.60;;;;;;;;;;5057088;28;20262;-63
2023/04/29 01:34:49;;;;;;;5.83;3.90;;;;;;;;;;5056909;28;20207;-63
2023/04/29 01:37:20;;;;;;;7.60;3.73;;;;;;;;;;5045964;28;20658;-63
2023/04/29 01:39:56;;;;;;;5.43;3.37;;;;;;;;;;5037526;28;20224;-63
2023/04/29 01:42:26;;;;;;;5.97;3.20;;;;;;;;;;5037277;28;20698;-63
2023/04/29 01:44:55;;;;;;;5.50;3.53;;;;;;;;;;5037527;28;20211;-63
2023/04/29 01:47:23;;;;;;;5.50;3.17;;;;;;;;;;5037172;28;20237;-63
2023/04/29 01:49:51;;;;;;;5.67;3.23;;;;;;;;;;5037501;28;20207;-63
2023/04/29 01:52:20;;;;;;;7.83;3.37;;;;;;;;;;5039922;28;20708;-64
2023/04/29 01:54:48;;;;;;;4.20;3.10;;;;;;;;;;5037123;28;20214;-63
2023/04/29 01:57:18;;;;;;;3.67;2.93;;;;;;;;;;5037158;28;20211;-63
2023/04/29 01:59:46;;;;;;;5.60;3.23;;;;;;;;;;5052286;28;20290;-63
2023/04/29 02:02:14;;;;;;;3.60;3.13;;;;;;;;;;5057974;28;20650;-63
2023/04/29 02:04:43;;;;;;;4.60;2.80;;;;;;;;;;5061125;28;20206;-63
2023/04/29 02:07:11;;;;;;;2.70;2.50;;;;;;;;;;5061035;28;20289;-63
2023/04/29 02:09:39;;;;;;;3.53;2.90;;;;;;;;;;5060192;28;20217;-64
2023/04/29 02:12:07;;;;;;;8.23;2.73;;;;;;;;;;5055014;28;20238;-63
2023/04/29 02:14:36;;;;;;;5.37;3.43;;;;;;;;;;5040968;28;20204;-63
2023/04/29 02:17:04;;;;;;;6.67;3.27;;;;;;;;;;5040410;28;20338;-63
2023/04/29 02:19:32;;;;;;;3.60;2.70;;;;;;;;;;5040552;28;20323;-64
2023/04/29 02:22:00;;;;;;;4.60;3.10;;;;;;;;;;5040777;28;20208;-64
2023/04/29 02:24:28;;;;;;;6.03;2.60;;;;;;;;;;5040714;28;20338;-64
2023/04/29 02:26:57;;;;;;;3.47;2.77;;;;;;;;;;5044912;28;20311;-64
2023/04/29 02:29:28;;;;;;;3.63;3.07;;;;;;;;;;5040358;28;20591;-62
2023/04/29 02:31:57;;;;;;;10.43;3.47;;;;;;;;;;5040186;28;20211;-63
2023/04/29 02:34:25;;;;;;;3.63;3.30;;;;;;;;;;5040369;28;20208;-63
2023/04/29 02:36:53;;;;;;;4.43;3.40;;;;;;;;;;5051003;28;20223;-63
2023/04/29 02:39:21;;;;;;;3.63;3.00;;;;;;;;;;5060312;28;20234;-63
2023/04/29 02:41:49;;;;;;;4.43;2.83;;;;;;;;;;5060422;28;20238;-63
2023/04/29 02:44:17;;;;;;;4.40;2.50;;;;;;;;;;5055849;28;20306;-62
2023/04/29 02:46:45;;;;;;;3.90;2.50;;;;;;;;;;5039666;28;20633;-63
2023/04/29 02:49:14;;;;;;;2.67;2.43;;;;;;;;;;5040026;28;20207;-62
2023/04/29 02:51:42;;;;;;;4.67;2.80;;;;;;;;;;5040294;28;20234;-62
2023/04/29 02:54:11;;;;;;;3.83;2.47;;;;;;;;;;5039987;28;20702;-62
2023/04/29 02:56:39;;;;;;;5.30;2.97;;;;;;;;;;5040163;28;20224;-62
2023/04/29 02:59:07;;;;;;;5.70;3.10;;;;;;;;;;5049541;28;20239;-62
2023/04/29 03:01:35;;;;;;;5.70;3.17;;;;;;;;;;5058715;28;20199;-62
2023/04/29 03:04:03;;;;;;;4.30;3.30;;;;;;;;;;5059746;28;20256;-60
2023/04/29 03:06:32;;;;;;;5.20;3.27;;;;;;;;;;5059632;28;20230;-62
2023/04/29 03:09:00;;;;;;;3.97;3.27;;;;;;;;;;5059543;28;20670;-61
2023/04/29 03:11:28;;;;;;;4.37;3.10;;;;;;;;;;5059358;28;20206;-61
2023/04/29 03:13:56;;;;;;;6.43;3.50;;;;;;;;;;5059072;28;20749;-61
2023/04/29 03:16:24;;;;;;;4.33;3.30;;;;;;;;;;5059195;28;20242;-62
2023/04/29 03:18:52;;;;;;;5.53;3.07;;;;;;;;;;5057157;28;20231;-62
2023/04/29 03:21:20;;;;;;;3.13;2.87;;;;;;;;;;5053821;28;20561;-62
2023/04/29 03:23:50;;;;;;;6.53;3.13;;;;;;;;;;5039400;28;20655;-62
2023/04/29 03:26:17;;;;;;;3.23;3.00;;;;;;;;;;5046327;28;20218;-62
2023/04/29 03:28:46;;;;;;;5.43;3.10;;;;;;;;;;5059582;28;20211;-63
2023/04/29 03:31:15;;;;;;;4.30;3.27;;;;;;;;;;5059314;28;20211;-62
2023/04/29 03:33:43;;;;;;;3.10;2.80;;;;;;;;;;5059015;28;20237;-62
2023/04/29 03:36:12;;;;;;;5.83;2.87;;;;;;;;;;5050971;28;20306;-62
2023/04/29 03:38:40;;;;;;;3.67;2.70;;;;;;;;;;5052076;28;20231;-61
2023/04/29 03:41:09;;;;;;;3.67;2.97;;;;;;;;;;5039064;28;20640;-61
2023/04/29 03:43:37;;;;;;;4.67;2.83;;;;;;;;;;5039210;28;20259;-61
2023/04/29 03:46:05;;;;;;;3.33;3.00;;;;;;;;;;5038738;28;20258;-61
2023/04/29 03:48:33;;;;;;;5.17;3.10;;;;;;;;;;5038941;28;20207;-61
2023/04/29 03:51:01;;;;;;;3.93;2.50;;;;;;;;;;5039160;28;20242;-63
2023/04/29 03:53:29;;;;;;;3.67;2.67;;;;;;;;;;5048324;28;20199;-63
2023/04/29 03:55:57;;;;;;;5.07;2.77;;;;;;;;;;5058845;28;20223;-63
2023/04/29 03:58:26;;;;;;;4.13;2.90;;;;;;;;;;5057978;28;20202;-63
2023/04/29 04:00:55;;;;;;;4.10;2.63;;;;;;;;;;5047257;28;20215;-63
2023/04/29 04:03:24;;;;;;;3.13;2.53;;;;;;;;;;5038463;28;20257;-64
2023/04/29 04:05:52;;;;;;;4.23;2.90;;;;;;;;;;5038794;28;20231;-63
2023/04/29 04:08:20;;;;;;;4.13;2.70;;;;;;;;;;5038616;28;20690;-63
2023/04/29 04:10:48;;;;;;;2.97;2.47;;;;;;;;;;5046705;28;20266;-63
2023/04/29 04:13:16;;;;;;;5.30;3.03;;;;;;;;;;5058663;28;20210;-64
2023/04/29 04:15:50;;;;;;;2.97;2.67;;;;;;;;;;5049242;28;20233;-63
2023/04/29 04:18:18;;;;;;;4.97;3.07;;;;;;;;;;5037893;28;20545;-63
2023/04/29 04:20:47;;;;;;;3.20;2.90;;;;;;;;;;5038413;28;20272;-62
2023/04/29 04:23:15;;;;;;;3.67;2.97;;;;;;;;;;5038286;28;20207;-63
2023/04/29 04:25:45;;;;;;;3.87;2.90;;;;;;;;;;5039406;28;20738;-63
2023/04/29 04:28:13;;;;;;;3.47;2.77;;;;;;;;;;5054870;28;20211;-63
2023/04/29 04:30:41;;;;;;;5.07;4.03;;;;;;;;;;5057320;28;20195;-63
2023/04/29 04:33:11;;;;;;;4.47;3.10;;;;;;;;;;5053962;28;20202;-62
2023/04/29 04:35:38;;;;;;;3.50;3.07;;;;;;;;;;5057774;28;20577;-63
2023/04/29 04:38:06;;;;;;;3.87;3.17;;;;;;;;;;5057798;28;20701;-63
2023/04/29 04:40:34;;;;;;;3.60;3.23;;;;;;;;;;5058142;28;20207;-63
2023/04/29 04:43:02;;;;;;;5.83;3.80;;;;;;;;;;5057728;28;20237;-61
2023/04/29 04:45:30;;;;;;;6.83;3.00;;;;;;;;;;5057265;28;20237;-60
2023/04/29 04:47:58;;;;;;;6.17;3.37;;;;;;;;;;5057227;28;20236;-60
2023/04/29 04:50:29;;;;;;;7.80;4.67;;;;;;;;;;5057888;28;20195;-60
2023/04/29 04:52:57;;;;;;;5.37;3.63;;;;;;;;;;5054374;28;20230;-60
2023/04/29 04:58:53;;;;;;;4.60;3.10;;;;;;;;;;5045074;28;20671;-60
2023/04/29 05:01:21;;;;;;;6.03;3.40;;;;;;;;;;5046731;28;20278;-59
2023/04/29 05:03:50;;;;;;;6.30;3.53;;;;;;;;;;5051038;28;20262;-60
2023/04/29 05:06:19;;;;;;;5.30;3.23;;;;;;;;;;5047314;28;20219;-61
2023/04/29 05:08:50;;;;;;;5.33;3.33;;;;;;;;;;5046990;28;20281;-60
2023/04/29 05:11:18;;;;;;;5.63;3.50;;;;;;;;;;5050618;28;20203;-60
2023/04/29 05:13:46;;;;;;;6.63;3.17;;;;;;;;;;5047778;28;20215;-60
2023/04/29 05:16:16;;;;;;;4.80;2.90;;;;;;;;;;5047387;28;20325;-60
2023/04/29 05:18:47;;;;;;;3.00;2.70;;;;;;;;;;5045678;28;20243;-61
2023/04/29 05:21:17;;;;;;;4.07;2.73;;;;;;;;;;5053763;28;20203;-60
2023/04/29 05:23:47;;;;;;;5.57;2.77;;;;;;;;;;5047240;28;20662;-60
2023/04/29 05:26:15;;;;;;;4.03;2.67;;;;;;;;;;5046110;28;20250;-60
2023/04/29 05:28:45;;;;;;;3.60;2.63;;;;;;;;;;5045543;28;20616;-61
2023/04/29 05:31:13;;;;;;;2.90;2.60;;;;;;;;;;5046647;28;20349;-60
2023/04/29 05:33:41;;;;;;;5.27;2.73;;;;;;;;;;5049054;28;20248;-60
2023/04/29 05:36:10;;;;;;;4.70;2.90;;;;;;;;;;5046775;28;20246;-61
2023/04/29 05:38:38;;;;;;;4.60;2.77;;;;;;;;;;5048875;28;20243;-61
2023/04/29 05:41:07;;;;;;;4.63;2.57;;;;;;;;;;5049955;28;20249;-61
2023/04/29 05:43:35;;;;;;;2.50;2.33;;;;;;;;;;5053965;28;20218;-61
2023/04/29 05:46:03;;;;;;;4.43;2.70;;;;;;;;;;5050398;28;20685;-60
2023/04/29 05:48:32;;;;;;;2.27;2.07;;;;;;;;;;5052855;28;20202;-59
2023/04/29 05:51:00;;;;;;;2.47;2.27;;;;;;;;;;5051079;28;20204;-60
2023/04/29 05:53:28;;;;;;;2.87;2.00;;;;;;;;;;5049424;28;20203;-60
2023/04/29 05:55:56;;;;;;;2.90;2.60;;;;;;;;;;5050001;28;20251;-60
2023/04/29 05:58:26;;;;;;;3.00;2.50;;;;;;;;;;5050192;28;20203;-60
2023/04/29 06:00:54;;;;;;;2.73;2.43;;;;;;;;;;5061013;28;20239;-58
2023/04/29 06:03:23;;;;;;;4.63;2.60;;;;;;;;;;5057236;28;20199;-58
2023/04/29 06:05:52;;;;;;;2.93;2.53;;;;;;;;;;5048828;28;20748;-59
2023/04/29 06:08:20;;;;;;;3.43;2.27;;;;;;;;;;5040874;28;20615;-60
2023/04/29 06:10:50;;;;;;;3.70;2.20;;;;;;;;;;5049101;28;20285;-60
2023/04/29 06:13:18;;;;;;;2.07;1.90;;;;;;;;;;5057363;28;20632;-60
2023/04/29 06:15:47;;;;;;;3.43;2.27;;;;;;;;;;5052047;28;20231;-60
2023/04/29 06:18:15;;;;;;;2.63;2.10;;;;;;;;;;5055038;28;20728;-61
2023/04/29 06:20:43;;;;;;;2.00;1.90;;;;;;;;;;5052071;28;20272;-61
2023/04/29 06:23:11;;;;;;;3.00;2.40;;;;;;;;;;5060803;28;20285;-60
2023/04/29 06:25:39;;;;;;;2.80;2.43;;;;;;;;;;5059858;28;20266;-60
2023/04/29 06:28:08;;;;;;;6.77;2.33;;;;;;;;;;5048323;28;20199;-60
2023/04/29 06:30:36;;;;;;;3.07;2.00;;;;;;;;;;5040470;28;20211;-61
2023/04/29 06:33:05;;;;;;;2.07;1.87;;;;;;;;;;5051968;28;20230;-61
2023/04/29 06:35:33;;;;;;;2.40;2.00;;;;;;;;;;5057598;28;20219;-61
2023/04/29 06:38:01;;;;;;;2.67;2.00;;;;;;;;;;5050483;28;20233;-61
2023/04/29 06:40:29;;;;;;;3.03;1.93;;;;;;;;;;5052608;28;20650;-61
2023/04/29 06:42:57;;;;;;;1.93;1.80;;;;;;;;;;5051200;28;20637;-61
2023/04/29 06:45:25;;;;;;;2.17;1.97;;;;;;;;;;5046460;28;20227;-61
2023/04/29 06:47:53;;;;;;;3.30;2.40;;;;;;;;;;5055400;28;20285;-61
2023/04/29 06:50:23;;;;;;;3.70;1.60;;;;;;;;;;5049387;28;20199;-61
2023/04/29 06:52:51;;;;;;;2.63;1.97;;;;;;;;;;5048412;28;20223;-61
2023/04/29 06:55:19;;;;;;;3.13;2.30;;;;;;;;;;5042287;28;20284;-61
2023/04/29 06:57:47;;;;;;;1.80;1.70;;;;;;;;;;5046608;28;20203;-60
2023/04/29 07:00:15;;;;;;;3.00;1.70;;;;;;;;;;5057074;28;20233;-60
2023/04/29 07:02:43;;;;;;;2.93;1.63;;;;;;;;;;5039792;28;20208;-60
2023/04/29 07:05:11;;;;;;;2.67;1.80;;;;;;;;;;5039581;28;20697;-59
2023/04/29 07:07:40;;;;;;;4.37;2.20;;;;;;;;;;5040012;28;20294;-61
2023/04/29 07:10:09;;;;;;;3.43;2.20;;;;;;;;;;5042085;28;20207;-61
2023/04/29 07:12:37;;;;;;;2.57;1.93;;;;;;;;;;5058646;28;20286;-61
2023/04/29 07:15:05;;;;;;;4.50;2.87;;;;;;;;;;5042773;28;20301;-60
2023/04/29 07:17:33;;;;;;;3.13;2.23;;;;;;;;;;5039302;28;20204;-61
2023/04/29 07:20:02;;;;;;;2.30;1.97;;;;;;;;;;5039379;28;20240;-61
2023/04/29 07:22:30;;;;;;;3.33;2.57;;;;;;;;;;5052082;28;20729;-61
2023/04/29 07:25:00;;;;;;;2.27;2.07;;;;;;;;;;5056736;28;20572;-61
2023/04/29 07:30:50;;;;;;;2.57;2.33;;;;;;;;;;5049558;28;20186;-66
2023/04/29 07:33:18;;;;;;;2.37;1.90;;;;;;;;;;5045786;28;20302;-63
2023/04/29 07:35:46;;;;;;;2.97;2.33;;;;;;;;;;5050878;28;20306;-62
2023/04/29 07:38:14;;;;;;;2.63;2.17;;;;;;;;;;5058772;28;20238;-62
2023/04/29 07:40:43;;;;;;;3.67;2.27;;;;;;;;;;5056705;28;20282;-62
2023/04/29 07:43:12;;;;;;;4.50;2.40;;;;;;;;;;5059017;28;20689;-61
2023/04/29 07:45:40;;;;;;;3.03;2.23;;;;;;;;;;5058961;28;20284;-61
2023/04/29 07:48:08;;;;;;;2.80;2.40;;;;;;;;;;5058924;28;20215;-62
2023/04/29 07:50:36;;;;;;;4.03;2.50;;;;;;;;;;5058843;28;20239;-61
2023/04/29 07:53:04;;;;;;;4.40;2.57;;;;;;;;;;5059149;28;20203;-62
2023/04/29 07:55:32;;;;;;;4.97;2.73;;;;;;;;;;5056346;28;20230;-61
2023/04/29 07:58:02;;;;;;;5.03;3.07;;;;;;;;;;5058619;28;20553;-61
2023/04/29 08:00:30;;;;;;;5.77;3.10;;;;;;;;;;5058721;28;20217;-61
2023/04/29 08:02:58;;;;;;;5.20;3.30;;;;;;;;;;5048584;28;20298;-62
2023/04/29 08:05:26;;;;;;;5.23;3.37;;;;;;;;;;5041460;28;20229;-61
2023/04/29 08:07:55;;;;;;;5.40;3.33;;;;;;;;;;5049899;28;20208;-62
2023/04/29 08:10:23;;;;;;;7.07;3.13;;;;;;;;;;5057834;28;20203;-61
2023/04/29 08:12:50;;;;;;;7.33;3.67;;;;;;;;;;5058386;28;20674;-62
2023/04/29 08:15:20;;;;;;;8.53;3.97;;;;;;;;;;5058171;28;20318;-61
2023/04/29 08:17:48;;;;;;;6.30;4.43;;;;;;;;;;5057963;28;20203;-61
2023/04/29 08:20:16;;;;;;;4.70;3.67;;;;;;;;;;5058187;28;20644;-61
2023/04/29 08:22:44;;;;;;;6.37;3.57;;;;;;;;;;5057375;28;20589;-62
2023/04/29 08:25:12;;;;;;;3.80;2.90;;;;;;;;;;5044874;28;20223;-61
2023/04/29 08:27:42;;;;;;;5.00;3.03;;;;;;;;;;5057191;28;20232;-61
2023/04/29 08:30:10;;;;;;;5.30;4.30;;;;;;;;;;5058409;28;20238;-61
2023/04/29 08:32:40;;;;;;;4.00;3.60;;;;;;;;;;5057278;28;20214;-61
2023/04/29 08:35:08;;;;;;;4.97;4.23;;;;;;;;;;5045225;28;20238;-61
2023/04/29 08:37:36;;;;;;;8.50;4.63;;;;;;;;;;5050932;28;20199;-61
2023/04/29 08:40:04;;;;;;;6.63;4.80;;;;;;;;;;5038228;28;20211;-62
2023/04/29 08:42:35;;;;;;;8.40;4.67;;;;;;;;;;5038323;28;20245;-62
2023/04/29 08:45:03;;;;;;;5.57;4.97;;;;;;;;;;5037798;28;20239;-61
2023/04/29 08:47:32;;;;;;;7.30;5.23;;;;;;;;;;5037475;28;20263;-61
2023/04/29 08:50:04;;;;;;;7.37;5.03;;;;;;;;;;5044123;28;20281;-62
2023/04/29 08:52:32;;;;;;;7.83;4.80;;;;;;;;;;5054373;28;20712;-62
2023/04/29 08:55:01;;;;;;;6.27;4.93;;;;;;;;;;5037690;28;20558;-62
2023/04/29 08:57:30;;;;;;;5.47;4.83;;;;;;;;;;5039167;28;20208;-62
2023/04/29 08:59:59;;;;;;;6.27;4.93;;;;;;;;;;5048266;28;20213;-62
2023/04/29 09:02:28;;;;;;;7.67;5.13;;;;;;;;;;5051560;28;20573;-62
2023/04/29 09:05:01;;;;;;;7.07;5.10;;;;;;;;;;5037829;28;20216;-62
2023/04/29 09:07:32;;;;;;;6.80;4.70;;;;;;;;;;5041209;28;20223;-62
2023/04/29 09:10:00;;;;;;;5.97;5.33;;;;;;;;;;5040182;28;20207;-62
2023/04/29 09:12:29;;;;;;;6.43;4.77;;;;;;;;;;5040200;28;20212;-61
2023/04/29 09:14:57;;;;;;;8.93;6.43;;;;;;;;;;5047674;28;20211;-61
2023/04/29 09:17:43;;;;;;;8.43;6.63;;;;;;;;;;5044982;28;20281;-62
2023/04/29 09:20:27;;;;;;;12.00;6.40;;;;;;;;;;5046663;28;20764;-62
2023/04/29 09:22:57;;;;;;;9.30;5.77;;;;;;;;;;5049249;28;20209;-62
2023/04/29 09:25:26;;;;;;;6.23;5.13;;;;;;;;;;5044011;28;20310;-62
2023/04/29 09:27:54;;;;;;;7.30;5.17;;;;;;;;;;5053313;28;20716;-63
2023/04/29 09:30:22;;;;;;;6.93;5.50;;;;;;;;;;5045419;28;20221;-62
2023/04/29 09:33:04;;;;;;;10.73;5.80;;;;;;;;;;5044776;28;20203;-62
2023/04/29 09:35:32;;;;;;;5.50;4.83;;;;;;;;;;5044352;28;20285;-63
2023/04/29 09:38:11;;;;;;;9.57;5.07;;;;;;;;;;5043728;28;20195;-62
2023/04/29 09:40:40;;;;;;;6.07;5.47;;;;;;;;;;5047157;28;20214;-63
2023/04/29 09:43:25;;;;;;;6.77;5.30;;;;;;;;;;5047455;28;20204;-63
2023/04/29 09:45:54;;;;;;;7.00;5.07;;;;;;;;;;5045826;28;20227;-63
2023/04/29 09:48:22;;;;;;;5.47;4.53;;;;;;;;;;5047018;28;20229;-63
2023/04/29 09:51:00;;;;;;;4.40;4.00;;;;;;;;;;5047430;28;20214;-63
2023/04/29 09:53:30;;;;;;;5.13;3.83;;;;;;;;;;5046815;28;20226;-63
2023/04/29 09:55:59;;;;;;;6.07;3.93;;;;;;;;;;5047487;28;20253;-62
2023/04/29 09:58:32;;;;;;;5.40;4.10;;;;;;;;;;5047969;28;20217;-63
2023/04/29 10:01:01;;;;;;;4.83;4.17;;;;;;;;;;5044397;28;21021;-62
2023/04/29 10:03:32;;;;;;;4.50;4.10;;;;;;;;;;5045664;28;20210;-62
2023/04/29 10:06:01;;;;;;;4.40;3.73;;;;;;;;;;5047491;28;20233;-62
2023/04/29 10:08:31;;;;;;;4.80;3.47;;;;;;;;;;5045281;28;20921;-61
2023/04/29 10:10:59;;;;;;;4.90;4.00;;;;;;;;;;5047493;28;20203;-61
2023/04/29 10:13:28;;;;;;;5.90;3.87;;;;;;;;;;5056322;28;20210;-62
2023/04/29 10:16:03;;;;;;;5.87;5.27;;;;;;;;;;5055612;28;20222;-61
2023/04/29 10:18:35;;;;;;;4.87;3.93;;;;;;;;;;5055845;28;20203;-61
2023/04/29 10:21:06;;;;;;;7.43;3.83;;;;;;;;;;5047103;28;20212;-60
2023/04/29 10:23:36;;;;;;;5.17;3.90;;;;;;;;;;5037927;28;20243;-60
2023/04/29 10:26:05;;;;;;;4.40;3.80;;;;;;;;;;5044590;28;20583;-61
2023/04/29 10:28:33;;;;;;;4.87;4.33;;;;;;;;;;5059431;28;20270;-61
2023/04/29 10:31:02;;;;;;;6.40;4.67;;;;;;;;;;5059258;28;20261;-61
2023/04/29 10:33:31;;;;;;;4.37;3.97;;;;;;;;;;5059167;28;20692;-61
2023/04/29 10:36:00;;;;;;;4.57;3.83;;;;;;;;;;5059011;28;20227;-61
2023/04/29 10:38:31;;;;;;;5.87;3.73;;;;;;;;;;5057514;28;20199;-61
2023/04/29 10:41:03;;;;;;;3.37;2.97;;;;;;;;;;5059335;28;20684;-61
2023/04/29 10:43:31;;;;;;;3.20;2.90;;;;;;;;;;5052772;28;20238;-61
2023/04/29 10:46:20;;;;;;;3.70;3.40;;;;;;;;;;5059190;28;20278;-61
2023/04/29 10:48:48;;;;;;;6.50;3.70;;;;;;;;;;5052988;28;20318;-61
2023/04/29 10:51:28;;;;;;;4.63;3.40;;;;;;;;;;5047254;28;20270;-61
2023/04/29 10:54:00;;;;;;;4.47;3.23;;;;;;;;;;5046846;28;20260;-61
2023/04/29 10:56:39;;;;;;;4.63;3.37;;;;;;;;;;5041435;28;20219;-61
2023/04/29 10:59:10;;;;;;;6.43;3.33;;;;;;;;;;5048821;28;20237;-61
2023/04/29 11:01:45;;;;;;;4.17;3.60;;;;;;;;;;5058828;28;20237;-61
2023/04/29 11:04:13;;;;;;;4.27;3.87;;;;;;;;;;5058881;28;20212;-61
2023/04/29 11:06:42;;;;;;;4.33;3.47;;;;;;;;;;5045976;28;20235;-61
2023/04/29 11:09:12;;;;;;;3.67;3.33;;;;;;;;;;5058587;28;20249;-61
2023/04/29 11:11:49;;;;;;;5.23;3.70;;;;;;;;;;5050687;28;20298;-61
2023/04/29 11:14:22;;;;;;;4.03;3.53;;;;;;;;;;5038630;28;20718;-61
2023/04/29 11:16:52;;;;;;;3.80;3.50;;;;;;;;;;5038386;28;20231;-61
2023/04/29 11:19:20;;;;;;;4.23;3.80;;;;;;;;;;5038445;28;20293;-61
2023/04/29 11:21:48;;;;;;;4.17;3.57;;;;;;;;;;5038655;28;20204;-61
2023/04/29 11:24:16;;;;;;;4.83;3.43;;;;;;;;;;5038413;28;20222;-61
2023/04/29 11:26:45;;;;;;;7.40;4.07;;;;;;;;;;5049029;28;20222;-61
2023/04/29 11:29:14;;;;;;;4.30;3.90;;;;;;;;;;5057357;28;20226;-61
2023/04/29 11:31:42;;;;;;;7.53;4.33;;;;;;;;;;5046267;28;20214;-61
2023/04/29 11:34:10;;;;;;;5.27;4.43;;;;;;;;;;5041823;28;20195;-62
2023/04/29 11:36:38;;;;;;;4.30;3.40;;;;;;;;;;5045185;28;20227;-61
2023/04/29 11:39:06;;;;;;;4.60;3.53;;;;;;;;;;5038099;28;20243;-61
2023/04/29 11:41:35;;;;;;;9.00;4.40;;;;;;;;;;5038535;28;20290;-61
2023/04/29 11:44:06;;;;;;;7.40;4.93;;;;;;;;;;5056826;28;20232;-61
2023/04/29 11:46:35;;;;;;;4.43;4.03;;;;;;;;;;5058051;28;20265;-61
2023/04/29 11:49:03;;;;;;;7.13;4.23;;;;;;;;;;5052947;28;20223;-60
2023/04/29 11:51:31;;;;;;;5.00;3.60;;;;;;;;;;5046907;28;20207;-59
2023/04/29 11:53:59;;;;;;;6.23;4.20;;;;;;;;;;5046717;28;20206;-61
2023/04/29 11:56:27;;;;;;;4.50;4.10;;;;;;;;;;5049162;28;20222;-61
2023/04/29 11:58:56;;;;;;;5.50;3.93;;;;;;;;;;5048727;28;20223;-61
2023/04/29 12:01:25;;;;;;;4.63;3.83;;;;;;;;;;5047839;28;20678;-61
2023/04/29 12:03:59;;;;;;;4.20;3.80;;;;;;;;;;5048162;28;20214;-61
2023/04/29 12:06:28;;;;;;;6.83;4.63;;;;;;;;;;5047956;28;20218;-60
2023/04/29 12:08:59;;;;;;;7.17;4.07;;;;;;;;;;5048961;28;20265;-60
2023/04/29 12:11:27;;;;;;;6.07;4.27;;;;;;;;;;5047000;28;20222;-60
2023/04/29 12:13:56;;;;;;;5.87;4.10;;;;;;;;;;5047467;28;20261;-60
2023/04/29 12:16:24;;;;;;;7.97;3.97;;;;;;;;;;5053764;28;20221;-60
2023/04/29 12:18:53;;;;;;;4.13;3.77;;;;;;;;;;5051373;28;20265;-60
2023/04/29 12:21:23;;;;;;;7.47;4.73;;;;;;;;;;5048853;28;20206;-60
2023/04/29 12:23:51;;;;;;;7.80;4.87;;;;;;;;;;5049984;28;20207;-60
2023/04/29 12:26:19;;;;;;;6.70;4.50;;;;;;;;;;5051780;28;20709;-60
2023/04/29 12:28:48;;;;;;;5.70;4.90;;;;;;;;;;5043023;28;20227;-60
2023/04/29 12:31:16;;;;;;;4.20;3.80;;;;;;;;;;5055096;28;20237;-60
2023/04/29 12:33:44;;;;;;;3.47;3.13;;;;;;;;;;5057533;28;20203;-60
2023/04/29 12:36:17;;;;;;;3.53;3.07;;;;;;;;;;5057596;28;20581;-60
2023/04/29 12:38:47;;;;;;;3.60;3.30;;;;;;;;;;5048930;28;20196;-60
2023/04/29 12:41:16;;;;;;;3.90;3.33;;;;;;;;;;5045569;28;21412;-60
2023/04/29 12:43:45;;;;;;;4.10;3.70;;;;;;;;;;5047905;28;20230;-60
2023/04/29 12:46:13;;;;;;;3.43;2.93;;;;;;;;;;5045620;28;20257;-60
2023/04/29 12:48:43;;;;;;;3.13;2.73;;;;;;;;;;5047017;28;20227;-60
2023/04/29 12:51:11;;;;;;;3.20;2.90;;;;;;;;;;5047936;28;20203;-61
2023/04/29 12:53:39;;;;;;;3.20;2.87;;;;;;;;;;5048018;28;20237;-60
2023/04/29 12:56:12;;;;;;;4.37;3.03;;;;;;;;;;5048399;28;20263;-61
2023/04/29 12:58:40;;;;;;;3.20;2.90;;;;;;;;;;5049542;28;20689;-61
2023/04/29 13:01:08;;;;;;;2.50;2.30;;;;;;;;;;5057016;28;20732;-61
2023/04/29 13:03:36;;;;;;;3.77;2.63;;;;;;;;;;5057247;28;20294;-61
2023/04/29 13:06:07;;;;;;;2.67;2.40;;;;;;;;;;5050625;28;20282;-61
2023/04/29 13:08:35;;;;;;;3.17;2.30;;;;;;;;;;5037505;28;20231;-61
2023/04/29 13:11:03;;;;;;;3.00;2.73;;;;;;;;;;5056477;28;20289;-61
2023/04/29 13:13:32;;;;;;;2.27;2.07;;;;;;;;;;5057375;28;20213;-61
2023/04/29 13:16:00;;;;;;;2.80;2.50;;;;;;;;;;5057253;28;20257;-61
2023/04/29 13:18:28;;;;;;;3.10;2.67;;;;;;;;;;5056816;28;20219;-61
2023/04/29 13:20:58;;;;;;;2.90;2.67;;;;;;;;;;5047521;28;20234;-61
2023/04/29 13:23:29;;;;;;;4.50;2.80;;;;;;;;;;5052845;28;20230;-62
2023/04/29 13:25:57;;;;;;;3.93;2.80;;;;;;;;;;5057192;28;20581;-61
2023/04/29 13:28:25;;;;;;;3.43;2.80;;;;;;;;;;5057619;28;20211;-61
2023/04/29 13:30:54;;;;;;;4.27;3.30;;;;;;;;;;5057113;28;20244;-61
2023/04/29 13:33:22;;;;;;;3.17;2.90;;;;;;;;;;5057490;28;20290;-61
2023/04/29 13:35:50;;;;;;;6.00;3.63;;;;;;;;;;5057503;28;20223;-61
2023/04/29 13:38:18;;;;;;;3.50;2.90;;;;;;;;;;5044756;28;20223;-61
2023/04/29 13:40:46;;;;;;;3.33;3.03;;;;;;;;;;5049812;28;20199;-60
2023/04/29 13:43:18;;;;;;;3.70;2.60;;;;;;;;;;5037944;28;20652;-61
2023/04/29 13:46:05;;;;;;;2.90;2.70;;;;;;;;;;5044851;28;20230;-61
2023/04/29 13:48:34;;;;;;;4.43;2.90;;;;;;;;;;5040815;28;20208;-61
2023/04/29 13:51:22;;;;;;;3.03;2.63;;;;;;;;;;5037399;28;20205;-61
2023/04/29 13:54:10;;;;;;;2.93;2.70;;;;;;;;;;5045383;28;20214;-61
2023/04/29 13:56:58;;;;;;;2.83;2.47;;;;;;;;;;5053322;28;20223;-61
2023/04/29 13:59:47;;;;;;;3.53;3.23;;;;;;;;;;5060680;28;20226;-61
2023/04/29 14:02:21;;;;;;;3.73;3.40;;;;;;;;;;5058674;28;20253;-61
2023/04/29 14:04:52;;;;;;;5.20;3.93;;;;;;;;;;5052526;28;20608;-61
2023/04/29 14:07:22;;;;;;;3.63;3.33;;;;;;;;;;5040705;28;20215;-61
2023/04/29 14:09:50;;;;;;;3.83;3.37;;;;;;;;;;5040681;28;20702;-61
2023/04/29 14:12:18;;;;;;;7.43;3.00;;;;;;;;;;5040701;28;20306;-61
2023/04/29 14:14:46;;;;;;;3.50;3.13;;;;;;;;;;5040886;28;20258;-61
2023/04/29 14:17:14;;;;;;;5.23;3.20;;;;;;;;;;5040499;28;20663;-61
2023/04/29 14:19:44;;;;;;;3.53;3.00;;;;;;;;;;5049675;28;20227;-61
2023/04/29 14:22:11;;;;;;;2.60;2.47;;;;;;;;;;5040460;28;20309;-62
2023/04/29 14:24:39;;;;;;;2.40;2.20;;;;;;;;;;5040616;28;20291;-62
2023/04/29 14:27:07;;;;;;;4.23;2.30;;;;;;;;;;5054435;28;20222;-61
2023/04/29 14:29:35;;;;;;;2.67;2.43;;;;;;;;;;5060834;28;20242;-61
2023/04/29 14:32:03;;;;;;;3.37;2.60;;;;;;;;;;5058350;28;20344;-61
2023/04/29 14:34:31;;;;;;;3.03;2.57;;;;;;;;;;5058932;28;20249;-60
2023/04/29 14:37:01;;;;;;;4.00;3.10;;;;;;;;;;5040761;28;20234;-61
2023/04/29 14:39:29;;;;;;;3.17;2.50;;;;;;;;;;5040417;28;20204;-61
2023/04/29 14:41:57;;;;;;;3.37;2.17;;;;;;;;;;5041668;28;20551;-61
2023/04/29 14:44:25;;;;;;;5.07;2.63;;;;;;;;;;5060123;28;20245;-61
2023/04/29 14:46:53;;;;;;;3.40;2.70;;;;;;;;;;5057361;28;20229;-61
2023/04/29 14:49:20;;;;;;;2.53;2.33;;;;;;;;;;5040146;28;20690;-61
2023/04/29 14:51:48;;;;;;;2.60;2.40;;;;;;;;;;5040296;28;20245;-61
2023/04/29 14:54:18;;;;;;;2.90;2.53;;;;;;;;;;5040233;28;20290;-61
2023/04/29 14:56:46;;;;;;;4.80;2.50;;;;;;;;;;5039672;28;20713;-61
2023/04/29 14:59:14;;;;;;;2.20;2.00;;;;;;;;;;5050728;28;20211;-61
2023/04/29 15:01:42;;;;;;;2.33;2.23;;;;;;;;;;5059809;28;20207;-61